Kingman, Indiana
Current Conditions -  °F | °C
As of 7:35 PM on Tuesday 25 Nov 2014 (Local Time) from KDNV Reporting Station
Overcast Overcast  
Wind Chill: 17°   Ceiling: 1500
Heat Index: 25°   Visibility: 10mi
Dew Point: 21°   Wind: 7mph
Humidity: 84%   Direction: 280°W
Pressure: 30.18"   Gusts: NA
Location:  39.97°N, 87.28°W
Report Text: KDNV 260035Z AUTO 28006KT 10SM OVC015 M04/M06 A3018 RMK AO2 T10381061
Loading
Personal Weather Stations






























Interactive Weather Map New forecast layout! Learn more

10-Day Weather Forecast

Advertisements
Track Severe Weather on mobile